Dobrodošli na spletni strani vremenske postaje Senovo. Vse informacije so informativnega značaja, saj vremenska postaja ni del državne mreže meteoroloških postaj.

AKTUALNIH OBVESTIL NI.


Posebna pozornost v zvezi z vremenskimi dogajanji ni potrebna.    Posebna pozornost v zvezi z vremenskimi dogajanji ni potrebna.

Pogled proti Armezu več informacij Pogled proti Armezu


Bohor več informacij Bohor


Lisca več informacij Lisca


Radar strel več informacij blitzortung!


Radar padavin več informacij rain snow radar


Obiščite še:

Template documentation
and downloads

And another site



METAR v bližini

   
LJLJ - Ljubljana
Posodobljeno: 15-12-2018 09:30
delno oblačno  
delno oblačno  
   Veter: Zahod 3.7 km/h
Veter: Zahod 3.7 km/h
Temperatura: -2°C
Točka rosišča: -4°C
Vlažnost: 86%
Zračni tlak: 1020 hPa
Oblaki: delno oblačno
Vidljivost: More than 10 km
Podrobnosti o oblakih: nekaj oblakov 396.2 m,
delno oblačno 2743.2 m
LJLJ 150830Z 28002KT 9999 FEW013 SCT090 M02/M04 Q1020 NOSIG
LJCE - Cerklje ob Krki
Posodobljeno: 15-12-2018 09:30
rahlo sneženje, oblačno  
rahlo sneženje, oblačno  
   Veter: različen 1.9 km/h
Veter: različen 1.9 km/h
Temperatura: -1°C
Točka rosišča: -3°C
Vlažnost: 86%
Zračni tlak: 1021 hPa
Oblaki: oblačno
Vidljivost: More than 10 km
Podrobnosti o oblakih: pretežno oblačno 670.6 m,
oblačno 1585 m
LJCE 150830Z VRB01KT 9999 -SN BKN022 OVC052 M01/M03 Q1021 RMK WHT
LJMB - Maribor
Posodobljeno: 15-12-2018 09:30
rahlo sneženje, meglica, pretežno oblačno  
rahlo sneženje, meglica, pretežno oblačno  
   Veter: Sever 13 km/h
Veter: Sever 13 km/h
Temperatura: -2°C
Občutek mraza: -7°C
Točka rosišča: -4°C
Vlažnost: 86%
Zračni tlak: 1021 hPa
Oblaki: pretežno oblačno
Vidljivost: 4 km
Podrobnosti o oblakih: nekaj oblakov 304.8 m,
delno oblačno 2438.4 m,
pretežno oblačno 2895.6 m
LJMB 150830Z 35007KT 4000 -SN BR FEW010 SCT080 BKN095 M02/M04 Q1021 R99/490995
LJPZ - Portorož
Posodobljeno: 15-12-2018 09:30
jasno  
jasno  
   Veter: SV 13 km/h
Veter: SV 13 km/h
Temperatura: 4°C
Občutek mraza: 1°C
Točka rosišča: -6°C
Vlažnost: 48%
Zračni tlak: 1020 hPa
Vidljivost: More than 10 km
Podrobnosti o oblakih: jasno
LJPZ 150830Z 05007KT 340V100 CAVOK 04/M06 Q1020
LDRI - Rijeka, Airport, Croatia
Posodobljeno: 15-12-2018 09:30
nekaj oblakov  
nekaj oblakov  
   Veter: Vzhod 22.2 km/h<br />Gust to 22.2 km/h
Veter: Vzhod 22.2 km/h
Gust to 22.2 km/h
Temperatura: 4°C
Občutek mraza: -1°C
Točka rosišča: -8°C
Vlažnost: 42%
Zračni tlak: 1017 hPa
Oblaki: nekaj oblakov
Vidljivost: More than 10 km
Podrobnosti o oblakih: nekaj oblakov 1310.6 m
LDRI 150830Z 08012G32KT 350V160 9999 FEW043 04/M08 Q1017
LOWK - Klagenfurt, Airport, Avstia
Posodobljeno: 15-12-2018 09:20
delno oblačno  
delno oblačno  
   Veter: SZ 5.6 km/h
Veter: SZ 5.6 km/h
Temperatura: -4°C
Občutek mraza: -7°C
Točka rosišča: -6°C
Vlažnost: 86%
Zračni tlak: 1021 hPa
Oblaki: delno oblačno
Vidljivost: More than 10 km
Podrobnosti o oblakih: nekaj oblakov 152.4 m,
delno oblačno 1828.8 m
LOWK 150820Z 32003KT 9999 FEW005 SCT060 M04/M06 Q1021 NOSIG

Script developed by  Saratoga-weather.org Adapted for the template by  Weerstation Leuven

Vremenski podatki so objavljeni na:

European Weather Network

WeatherCloud

Weather Underground

AWEKAS

HAMweather, WeatherForYou, PWS Weather

MapView

Geostik

Slovenia weather network

Oprema, ki se uporablja:

Vremenski program
Cumulus

Vremenski server
Asus

Cumulus

Asus